Boras — TCGU — position and weather

sailwx.info

Track history (hours):
 
Tides and Currents Weather Stations Pressure Air Temp Water Temp Dewpoint Dewpoint Depression Visibility Wind Speed Wind Dir Waves Ship Positions

Boras

Last reported at 2015-Feb-26 14:13 UTC. Time now 2015-Mar-06 11:09 UTC.
Position N 40°60' E 028°60'.

Length 103 m; draft 4.3 m.

Type: Cargo ship. MMSI: 271000352.

Date/timePositionNaut miles runAvg speedWind from/ knotsBaromVisibWave heightAir tempDewpointWater temp
2015-Feb-26 14:13N 40°60' E 028°60'5 7.0
2015-Feb-26 13:33N 40°55' E 029°01'8 7.6
2015-Feb-26 12:33N 40°50' E 029°08'3 2.9
2015-Feb-26 11:30N 40°52' E 029°11'0 0.0
2015-Feb-26 10:29N 40°52' E 029°11'0 0.0
2015-Feb-26 09:30N 40°52' E 029°11'0 0.0
2015-Feb-26 08:26N 40°52' E 029°11'0 0.0
2015-Feb-26 07:29N 40°52' E 029°11'0 0.0
2015-Feb-26 06:28N 40°52' E 029°11'0 0.0
2015-Feb-26 05:24N 40°52' E 029°11'0 0.0
2015-Feb-26 04:27N 40°52' E 029°11'0 0.0
2015-Feb-26 03:22N 40°52' E 029°11'0 0.0
2015-Feb-26 02:32N 40°52' E 029°11'0 0.0
2015-Feb-26 01:23N 40°52' E 029°11'0 0.1
2015-Feb-26 00:27N 40°52' E 029°11'0 0.0
2015-Feb-25 23:29N 40°52' E 029°11'0 0.1
2015-Feb-25 22:08N 40°52' E 029°11'1 0.5
2015-Feb-25 20:33N 40°51' E 029°11'6 6.0
2015-Feb-25 19:33N 40°46' E 029°14'9 8.9
2015-Feb-25 18:32N 40°45' E 029°26'3 0.6
2015-Feb-25 14:08N 40°46' E 029°29'0 0.0
2015-Feb-25 12:27N 40°46' E 029°29'0 0.0
2015-Feb-25 04:12N 40°46' E 029°29'0 0.0
2015-Feb-25 03:29N 40°46' E 029°29'0 0.0
2015-Feb-25 00:14N 40°46' E 029°29'0 0.0
2015-Feb-24 23:30N 40°46' E 029°29'0 0.0
2015-Feb-24 22:04N 40°46' E 029°29'0 0.0
2015-Feb-24 21:06N 40°46' E 029°29'0 0.0
2015-Feb-24 20:31N 40°46' E 029°29'0 0.0
2015-Feb-24 18:18N 40°46' E 029°29'0 0.0
2015-Feb-24 13:04N 40°46' E 029°29'0 0.0
2015-Feb-24 09:12N 40°46' E 029°29'0 0.0
2015-Feb-24 04:30N 40°46' E 029°29'0 0.1
2015-Feb-24 02:16N 40°46' E 029°29'0 0.0
2015-Feb-23 19:25N 40°46' E 029°29'0 0.0
2015-Feb-23 18:30N 40°46' E 029°29'0 0.0
2015-Feb-23 14:31N 40°46' E 029°29'0 0.0
2015-Feb-23 12:14N 40°46' E 029°29'2 2.0
2015-Feb-23 11:29N 40°45' E 029°31'  
Track history (hours):
 
Tides and Currents Weather Stations Pressure Air Temp Water Temp Dewpoint Dewpoint Depression Visibility Wind Speed Wind Dir Waves Ship Positions

Boras

Last reported at 2015-Feb-26 14:13 UTC. Time now 2015-Mar-06 11:09 UTC.
Position N 40°60' E 028°60'.

Length 103 m; draft 4.3 m.

Type: Cargo ship. MMSI: 271000352.

Date/timePositionNaut miles runAvg speedWind from/ knotsBaromVisibWave heightAir tempDewpointWater temp
2015-Feb-26 14:13N 40°60' E 028°60'5 7.0
2015-Feb-26 13:33N 40°55' E 029°01'8 7.6
2015-Feb-26 12:33N 40°50' E 029°08'3 2.9
2015-Feb-26 11:30N 40°52' E 029°11'0 0.0
2015-Feb-26 10:29N 40°52' E 029°11'0 0.0
2015-Feb-26 09:30N 40°52' E 029°11'0 0.0
2015-Feb-26 08:26N 40°52' E 029°11'0 0.0
2015-Feb-26 07:29N 40°52' E 029°11'0 0.0
2015-Feb-26 06:28N 40°52' E 029°11'0 0.0
2015-Feb-26 05:24N 40°52' E 029°11'0 0.0
2015-Feb-26 04:27N 40°52' E 029°11'0 0.0
2015-Feb-26 03:22N 40°52' E 029°11'0 0.0
2015-Feb-26 02:32N 40°52' E 029°11'0 0.0
2015-Feb-26 01:23N 40°52' E 029°11'0 0.1
2015-Feb-26 00:27N 40°52' E 029°11'0 0.0
2015-Feb-25 23:29N 40°52' E 029°11'0 0.1
2015-Feb-25 22:08N 40°52' E 029°11'1 0.5
2015-Feb-25 20:33N 40°51' E 029°11'6 6.0
2015-Feb-25 19:33N 40°46' E 029°14'9 8.9
2015-Feb-25 18:32N 40°45' E 029°26'3 0.6
2015-Feb-25 14:08N 40°46' E 029°29'0 0.0
2015-Feb-25 12:27N 40°46' E 029°29'0 0.0
2015-Feb-25 04:12N 40°46' E 029°29'0 0.0
2015-Feb-25 03:29N 40°46' E 029°29'0 0.0
2015-Feb-25 00:14N 40°46' E 029°29'0 0.0
2015-Feb-24 23:30N 40°46' E 029°29'0 0.0
2015-Feb-24 22:04N 40°46' E 029°29'0 0.0
2015-Feb-24 21:06N 40°46' E 029°29'0 0.0
2015-Feb-24 20:31N 40°46' E 029°29'0 0.0
2015-Feb-24 18:18N 40°46' E 029°29'0 0.0
2015-Feb-24 13:04N 40°46' E 029°29'0 0.0
2015-Feb-24 09:12N 40°46' E 029°29'0 0.0
2015-Feb-24 04:30N 40°46' E 029°29'0 0.1
2015-Feb-24 02:16N 40°46' E 029°29'0 0.0
2015-Feb-23 19:25N 40°46' E 029°29'0 0.0
2015-Feb-23 18:30N 40°46' E 029°29'0 0.0
2015-Feb-23 14:31N 40°46' E 029°29'0 0.0
2015-Feb-23 12:14N 40°46' E 029°29'2 2.0
2015-Feb-23 11:29N 40°45' E 029°31'  

Dump ship's entire track history